createdAt,value
2023-04-28T00:00:59.327Z,6.65
2023-04-28T00:03:28.577Z,6.61
2023-04-28T00:05:57.846Z,6.57
2023-04-28T00:08:27.338Z,6.53
2023-04-28T00:10:55.504Z,6.52
2023-04-28T00:13:23.884Z,6.51
2023-04-28T00:15:53.301Z,6.51
2023-04-28T00:18:22.055Z,6.48
2023-04-28T00:20:50.252Z,6.46
2023-04-28T00:23:18.438Z,6.47
2023-04-28T00:25:54.668Z,6.45
2023-04-28T00:28:33.453Z,6.45
2023-04-28T00:31:03.118Z,6.44
2023-04-28T00:33:31.198Z,6.43
2023-04-28T00:36:02.691Z,6.41
2023-04-28T00:38:30.823Z,6.39
2023-04-28T00:40:59.408Z,6.37
2023-04-28T00:43:28.094Z,6.34
2023-04-28T00:45:56.533Z,6.32
2023-04-28T00:48:24.860Z,6.30
2023-04-28T00:50:52.844Z,6.26
2023-04-28T00:53:21.460Z,6.24
2023-04-28T00:55:53.233Z,6.20
2023-04-28T00:58:21.244Z,6.17
2023-04-28T01:00:49.485Z,6.17
2023-04-28T01:03:18.039Z,6.17
2023-04-28T01:05:46.574Z,6.17
2023-04-28T01:08:14.749Z,6.15
2023-04-28T01:10:45.293Z,6.13
2023-04-28T01:13:18.874Z,6.13
2023-04-28T01:15:47.182Z,6.13
2023-04-28T01:18:16.457Z,6.13
2023-04-28T01:20:44.836Z,6.13
2023-04-28T01:23:14.133Z,6.12
2023-04-28T01:25:43.850Z,6.12
2023-04-28T01:28:12.835Z,6.11
2023-04-28T01:30:41.331Z,6.10
2023-04-28T01:33:09.592Z,6.11
2023-04-28T01:35:37.747Z,6.09
2023-04-28T01:38:05.950Z,6.07
2023-04-28T01:40:34.427Z,6.04
2023-04-28T01:43:02.390Z,6.02
2023-04-28T01:45:31.505Z,5.97
2023-04-28T01:48:00.845Z,5.96
2023-04-28T01:50:28.872Z,5.94
2023-04-28T01:52:57.752Z,5.93
2023-04-28T01:55:26.235Z,5.93
2023-04-28T01:57:55.021Z,5.93
2023-04-28T02:00:23.512Z,5.93
2023-04-28T02:02:52.945Z,5.91
2023-04-28T02:05:21.285Z,5.92
2023-04-28T02:07:49.445Z,5.91
2023-04-28T02:10:17.951Z,5.91
2023-04-28T02:12:46.040Z,5.92
2023-04-28T02:15:14.387Z,5.91
2023-04-28T02:17:42.676Z,5.90
2023-04-28T02:20:11.690Z,5.91
2023-04-28T02:22:40.044Z,5.91
2023-04-28T02:25:09.110Z,5.91
2023-04-28T02:27:38.737Z,5.90
2023-04-28T02:30:07.555Z,5.90
2023-04-28T02:32:35.572Z,5.88
2023-04-28T02:35:03.775Z,5.83
2023-04-28T02:37:31.761Z,5.78
2023-04-28T02:39:59.831Z,5.72
2023-04-28T02:42:28.097Z,5.65
2023-04-28T02:44:56.267Z,5.63
2023-04-28T02:47:24.348Z,5.61
2023-04-28T02:49:52.405Z,5.59
2023-04-28T02:52:20.494Z,5.58
2023-04-28T02:54:49.394Z,5.59
2023-04-28T02:57:17.988Z,5.61
2023-04-28T02:59:46.447Z,5.63
2023-04-28T03:02:15.994Z,5.62
2023-04-28T03:04:44.439Z,5.62
2023-04-28T03:07:12.707Z,5.60
2023-04-28T03:09:42.258Z,5.61
2023-04-28T03:12:10.585Z,5.61
2023-04-28T03:14:38.767Z,5.57
2023-04-28T03:17:07.758Z,5.58
2023-04-28T03:19:35.705Z,5.58
2023-04-28T03:22:03.911Z,5.59
2023-04-28T03:24:33.103Z,5.60
2023-04-28T03:27:03.760Z,5.62
2023-04-28T03:29:32.321Z,5.65
2023-04-28T03:32:00.379Z,5.65
2023-04-28T03:34:28.866Z,5.63
2023-04-28T03:36:57.154Z,5.66
2023-04-28T03:39:29.009Z,5.68
2023-04-28T03:41:57.386Z,5.68
2023-04-28T03:44:43.993Z,5.70
2023-04-28T03:47:12.269Z,5.63
2023-04-28T03:49:40.653Z,5.51
2023-04-28T03:52:08.921Z,5.48
2023-04-28T03:54:37.297Z,5.48
2023-04-28T03:57:05.411Z,5.48
2023-04-28T03:59:34.367Z,5.51
2023-04-28T04:02:02.640Z,5.54
2023-04-28T04:04:31.888Z,5.58
2023-04-28T04:07:00.836Z,5.60
2023-04-28T04:09:29.233Z,5.61
2023-04-28T04:11:57.384Z,5.58
2023-04-28T04:14:25.667Z,5.56
2023-04-28T04:16:55.523Z,5.55
2023-04-28T04:19:26.652Z,5.55
2023-04-28T04:21:55.925Z,5.51
2023-04-28T04:24:24.520Z,5.52
2023-04-28T04:26:52.610Z,5.50
2023-04-28T04:29:29.680Z,5.47
2023-04-28T04:31:57.938Z,5.45
2023-04-28T04:34:25.830Z,5.43
2023-04-28T04:36:54.285Z,5.41
2023-04-28T04:39:22.982Z,5.39
2023-04-28T04:41:51.147Z,5.39
2023-04-28T04:44:40.932Z,5.38
2023-04-28T04:47:12.276Z,5.37
2023-04-28T04:49:40.346Z,5.36
2023-04-28T04:52:08.529Z,5.37
2023-04-28T04:54:36.798Z,5.38
2023-04-28T04:57:05.382Z,5.38
2023-04-28T04:59:59.763Z,5.37
2023-04-28T05:02:27.906Z,5.36
2023-04-28T05:05:07.946Z,5.33
2023-04-28T05:07:41.702Z,5.34
2023-04-28T05:10:11.781Z,5.33
2023-04-28T05:12:40.508Z,5.34
2023-04-28T05:15:09.245Z,5.34
2023-04-28T05:17:38.942Z,5.37
2023-04-28T05:20:08.200Z,5.41
2023-04-28T05:22:36.487Z,5.46
2023-04-28T05:25:05.066Z,5.53
2023-04-28T05:27:33.347Z,5.58
2023-04-28T05:30:01.482Z,5.62
2023-04-28T05:32:30.442Z,5.67
2023-04-28T05:34:58.627Z,5.73
2023-04-28T05:37:26.863Z,5.78
2023-04-28T05:39:55.755Z,5.81
2023-04-28T05:42:23.817Z,5.86
2023-04-28T05:44:51.997Z,5.94
2023-04-28T05:47:20.408Z,6.02
2023-04-28T05:49:48.544Z,6.07
2023-04-28T05:52:16.623Z,6.13
2023-04-28T05:54:44.902Z,6.15
2023-04-28T05:57:13.081Z,6.18
2023-04-28T05:59:41.345Z,6.21
2023-04-28T06:02:09.602Z,6.19
2023-04-28T06:04:39.619Z,6.28
2023-04-28T06:07:08.836Z,6.37
2023-04-28T06:09:37.114Z,6.44
2023-04-28T06:12:06.351Z,6.52
2023-04-28T06:14:37.901Z,6.60
2023-04-28T06:17:06.250Z,6.70
2023-04-28T06:19:34.243Z,6.78
2023-04-28T06:22:02.293Z,6.80
2023-04-28T06:24:31.181Z,6.88
2023-04-28T06:26:59.914Z,6.97
2023-04-28T06:29:28.658Z,7.08
2023-04-28T06:31:58.068Z,7.17
2023-04-28T06:34:28.932Z,7.27
2023-04-28T06:37:00.348Z,7.36
2023-04-28T06:39:28.649Z,7.44
2023-04-28T06:41:57.942Z,7.52
2023-04-28T06:44:28.054Z,7.58
2023-04-28T06:46:57.575Z,7.58
2023-04-28T06:49:25.704Z,7.65
2023-04-28T06:51:59.014Z,7.74
2023-04-28T06:54:31.093Z,7.83
2023-04-28T06:56:59.121Z,7.91
2023-04-28T06:59:27.330Z,7.92
2023-04-28T07:01:55.618Z,8.00
2023-04-28T07:04:23.929Z,8.08
2023-04-28T07:06:52.472Z,8.16
2023-04-28T07:09:20.536Z,8.25
2023-04-28T07:11:48.709Z,8.33
2023-04-28T07:14:17.280Z,8.40
2023-04-28T07:16:45.777Z,8.48
2023-04-28T07:19:13.948Z,8.56
2023-04-28T07:21:42.207Z,8.65
2023-04-28T07:24:10.533Z,8.73
2023-04-28T07:26:38.765Z,8.83
2023-04-28T07:29:06.854Z,8.96
2023-04-28T07:31:35.377Z,9.06
2023-04-28T07:34:03.445Z,9.15
2023-04-28T07:36:32.100Z,9.25
2023-04-28T07:39:01.901Z,9.40
2023-04-28T07:41:30.192Z,9.55
2023-04-28T07:43:58.146Z,9.66
2023-04-28T07:46:26.279Z,9.78
2023-04-28T07:48:54.908Z,9.87
2023-04-28T07:51:22.978Z,9.93
2023-04-28T07:53:51.052Z,9.82
2023-04-28T07:56:19.105Z,9.76
2023-04-28T07:58:47.706Z,9.71
2023-04-28T08:01:15.816Z,9.79
2023-04-28T08:03:44.528Z,9.84
2023-04-28T08:06:13.449Z,9.88
2023-04-28T08:08:41.941Z,9.89
2023-04-28T08:11:09.995Z,9.94
2023-04-28T08:14:01.325Z,9.98
2023-04-28T08:16:47.421Z,9.95
2023-04-28T08:19:15.719Z,9.86
2023-04-28T08:21:43.874Z,9.89
2023-04-28T08:24:12.165Z,9.85
2023-04-28T08:26:40.324Z,9.84
2023-04-28T08:29:08.900Z,9.84
2023-04-28T08:31:37.288Z,9.90
2023-04-28T08:34:05.553Z,9.97
2023-04-28T08:36:34.180Z,10.02
2023-04-28T08:39:03.749Z,10.06
2023-04-28T08:41:33.575Z,10.10
2023-04-28T08:44:01.939Z,10.18
2023-04-28T08:46:31.272Z,10.28
2023-04-28T08:49:02.435Z,10.39
2023-04-28T08:51:45.097Z,10.48
2023-04-28T08:54:26.712Z,10.56
2023-04-28T08:56:57.103Z,10.64
2023-04-28T08:59:25.917Z,10.76
2023-04-28T09:01:54.033Z,10.89
2023-04-28T09:04:22.547Z,11.00
2023-04-28T09:06:51.146Z,11.15
2023-04-28T09:09:39.189Z,11.36
2023-04-28T09:12:08.281Z,11.55
2023-04-28T09:14:38.026Z,11.69
2023-04-28T09:17:14.565Z,11.77
2023-04-28T09:19:45.914Z,11.86
2023-04-28T09:22:26.421Z,11.96
2023-04-28T09:24:56.402Z,12.08
2023-04-28T09:27:28.875Z,12.16
2023-04-28T09:29:57.296Z,12.23
2023-04-28T09:32:28.101Z,12.24
2023-04-28T09:34:57.299Z,12.27
2023-04-28T09:37:30.748Z,12.32
2023-04-28T09:40:06.208Z,12.32
2023-04-28T09:42:48.104Z,12.32
2023-04-28T09:45:16.702Z,12.37
2023-04-28T09:47:47.986Z,12.40
2023-04-28T09:50:18.462Z,12.45
2023-04-28T09:52:57.412Z,12.46
2023-04-28T09:55:27.473Z,12.49
2023-04-28T09:57:55.986Z,12.66
2023-04-28T10:00:25.008Z,12.88
2023-04-28T10:02:53.857Z,13.12
2023-04-28T10:05:23.831Z,13.35
2023-04-28T10:07:55.360Z,13.55
2023-04-28T10:10:25.393Z,13.63
2023-04-28T10:12:54.449Z,13.68
2023-04-28T10:15:23.883Z,13.79
2023-04-28T10:17:53.492Z,13.92
2023-04-28T10:20:23.197Z,14.08
2023-04-28T10:23:21.788Z,14.20
2023-04-28T10:25:57.433Z,14.24
2023-04-28T10:28:26.837Z,14.30
2023-04-28T10:31:15.638Z,14.39
2023-04-28T10:33:44.900Z,14.45
2023-04-28T10:36:53.109Z,14.50
2023-04-28T10:39:21.652Z,14.69
2023-04-28T10:41:50.182Z,14.86
2023-04-28T10:44:30.635Z,15.01
2023-04-28T10:47:09.932Z,15.15
2023-04-28T10:49:59.606Z,15.28
2023-04-28T10:52:35.102Z,15.43
2023-04-28T10:55:33.075Z,15.45
2023-04-28T10:58:16.491Z,15.30
2023-04-28T11:00:45.703Z,15.32
2023-04-28T11:03:48.873Z,15.34
2023-04-28T11:06:25.684Z,15.34
2023-04-28T11:09:04.310Z,15.26
2023-04-28T11:11:36.662Z,15.21
2023-04-28T11:14:20.395Z,15.27
2023-04-28T11:16:50.900Z,15.41
2023-04-28T11:19:25.685Z,15.59
2023-04-28T11:21:56.683Z,15.75
2023-04-28T11:24:27.548Z,15.87
2023-04-28T11:26:56.534Z,15.97
2023-04-28T11:29:36.167Z,16.08
2023-04-28T11:32:10.979Z,16.16
2023-04-28T11:34:39.174Z,16.21
2023-04-28T11:37:08.708Z,16.30
2023-04-28T11:39:37.361Z,16.43
2023-04-28T11:42:11.697Z,16.56
2023-04-28T11:44:40.268Z,16.53
2023-04-28T11:47:08.436Z,16.47
2023-04-28T11:49:44.944Z,16.40
2023-04-28T11:52:14.010Z,16.34
2023-04-28T11:54:43.829Z,16.29
2023-04-28T11:57:20.517Z,16.32
2023-04-28T11:59:49.924Z,16.34
2023-04-28T12:02:30.053Z,16.32
2023-04-28T12:05:07.744Z,16.28
2023-04-28T12:07:44.336Z,16.22
2023-04-28T12:10:16.074Z,16.30
2023-04-28T12:12:51.847Z,16.43
2023-04-28T12:15:22.874Z,16.57
2023-04-28T12:17:51.755Z,16.62
2023-04-28T12:20:38.157Z,16.58
2023-04-28T12:23:08.049Z,16.49
2023-04-28T12:25:47.347Z,16.50
2023-04-28T12:28:15.482Z,16.63
2023-04-28T12:30:44.031Z,16.78
2023-04-28T12:33:29.843Z,16.90
2023-04-28T12:35:59.161Z,16.93
2023-04-28T12:38:28.481Z,17.03
2023-04-28T12:40:57.349Z,17.15
2023-04-28T12:43:27.226Z,17.22
2023-04-28T12:45:56.782Z,17.24
2023-04-28T12:48:25.518Z,17.26
2023-04-28T12:50:53.784Z,17.30
2023-04-28T12:53:21.803Z,17.40
2023-04-28T12:55:49.882Z,17.50
2023-04-28T12:58:18.572Z,17.54
2023-04-28T13:00:46.657Z,17.52
2023-04-28T13:03:16.057Z,17.48
2023-04-28T13:05:44.533Z,17.38
2023-04-28T13:08:13.724Z,17.41
2023-04-28T13:10:42.101Z,17.42
2023-04-28T13:13:10.173Z,17.37
2023-04-28T13:15:38.989Z,17.22
2023-04-28T13:18:07.402Z,17.26
2023-04-28T13:20:36.029Z,17.34
2023-04-28T13:23:04.113Z,17.22
2023-04-28T13:25:34.461Z,17.11
2023-04-28T13:28:03.013Z,17.12
2023-04-28T13:30:31.079Z,17.05
2023-04-28T13:32:59.273Z,16.82
2023-04-28T13:35:27.733Z,16.77
2023-04-28T13:38:01.917Z,16.78
2023-04-28T13:40:31.675Z,16.82
2023-04-28T13:43:00.310Z,16.80
2023-04-28T13:45:28.901Z,16.75
2023-04-28T13:47:57.461Z,16.71
2023-04-28T13:50:26.242Z,16.68
2023-04-28T13:52:54.576Z,16.63
2023-04-28T13:55:28.484Z,16.58
2023-04-28T13:57:57.380Z,16.64
2023-04-28T14:00:25.441Z,16.72
2023-04-28T14:02:53.725Z,16.79
2023-04-28T14:05:22.427Z,16.86
2023-04-28T14:07:50.584Z,16.91
2023-04-28T14:10:18.832Z,16.95
2023-04-28T14:12:47.027Z,16.99
2023-04-28T14:15:17.753Z,17.00
2023-04-28T14:17:46.063Z,17.00
2023-04-28T14:20:14.548Z,17.05
2023-04-28T14:22:42.697Z,16.94
2023-04-28T14:25:11.192Z,16.98
2023-04-28T14:27:39.467Z,16.98
2023-04-28T14:30:08.963Z,16.99
2023-04-28T14:32:40.113Z,16.94
2023-04-28T14:35:09.515Z,16.94
2023-04-28T14:37:37.960Z,16.94
2023-04-28T14:40:07.041Z,16.87
2023-04-28T14:42:37.415Z,16.78
2023-04-28T14:45:09.159Z,16.57
2023-04-28T14:47:38.654Z,16.47
2023-04-28T14:50:07.974Z,16.52
2023-04-28T14:52:36.456Z,16.54
2023-04-28T14:55:08.316Z,16.58
2023-04-28T14:57:37.920Z,16.59
2023-04-28T15:00:08.283Z,16.62
2023-04-28T15:02:37.692Z,16.66
2023-04-28T15:05:06.624Z,16.68
2023-04-28T15:07:34.816Z,16.63
2023-04-28T15:10:02.999Z,16.48
2023-04-28T15:12:32.308Z,16.39
2023-04-28T15:15:00.872Z,16.34
2023-04-28T15:17:28.978Z,16.35
2023-04-28T15:19:57.426Z,16.35
2023-04-28T15:22:25.531Z,16.35
2023-04-28T15:24:53.859Z,16.38
2023-04-28T15:27:23.134Z,16.38
2023-04-28T15:29:51.773Z,16.40
2023-04-28T15:32:19.840Z,16.41
2023-04-28T15:34:47.962Z,16.42
2023-04-28T15:37:40.363Z,16.44
2023-04-28T15:40:11.766Z,16.38
2023-04-28T15:42:42.873Z,16.32
2023-04-28T15:45:11.433Z,16.16
2023-04-28T15:47:40.885Z,15.70
2023-04-28T15:50:11.002Z,15.44
2023-04-28T15:52:46.426Z,15.44
2023-04-28T15:55:16.808Z,15.32
2023-04-28T15:57:47.081Z,15.30
2023-04-28T16:00:16.056Z,15.31
2023-04-28T16:02:45.242Z,15.12
2023-04-28T16:05:13.639Z,15.18
2023-04-28T16:07:41.999Z,15.22
2023-04-28T16:10:12.476Z,15.25
2023-04-28T16:12:41.237Z,15.27
2023-04-28T16:15:12.796Z,15.21
2023-04-28T16:17:41.931Z,15.08
2023-04-28T16:20:11.349Z,15.05
2023-04-28T16:22:41.121Z,15.06
2023-04-28T16:25:11.130Z,15.06
2023-04-28T16:27:40.650Z,15.04
2023-04-28T16:30:10.137Z,15.04
2023-04-28T16:32:38.753Z,15.03
2023-04-28T16:35:14.515Z,15.03
2023-04-28T16:37:43.798Z,15.00
2023-04-28T16:40:13.674Z,14.99
2023-04-28T16:42:42.451Z,14.96
2023-04-28T16:45:11.746Z,14.92
2023-04-28T16:47:44.721Z,14.88
2023-04-28T16:50:16.614Z,14.83
2023-04-28T16:52:45.149Z,14.78
2023-04-28T16:55:13.464Z,14.72
2023-04-28T16:57:41.846Z,14.65
2023-04-28T17:00:10.682Z,14.59
2023-04-28T17:02:38.995Z,14.53
2023-04-28T17:05:08.166Z,14.47
2023-04-28T17:07:36.678Z,14.40
2023-04-28T17:10:06.292Z,14.31
2023-04-28T17:12:34.567Z,14.19
2023-04-28T17:15:02.837Z,14.09
2023-04-28T17:17:31.147Z,13.99
2023-04-28T17:20:02.287Z,13.87
2023-04-28T17:22:31.895Z,13.73
2023-04-28T17:25:00.357Z,13.56
2023-04-28T17:27:28.529Z,13.42
2023-04-28T17:29:57.255Z,13.24
2023-04-28T17:32:25.442Z,13.07
2023-04-28T17:34:53.462Z,12.93
2023-04-28T17:37:21.532Z,12.81
2023-04-28T17:39:51.033Z,12.67
2023-04-28T17:42:19.417Z,12.54
2023-04-28T17:44:47.482Z,12.41
2023-04-28T17:47:17.160Z,12.27
2023-04-28T17:49:46.098Z,12.13
2023-04-28T17:52:15.657Z,12.00
2023-04-28T17:54:43.881Z,11.90
2023-04-28T17:57:13.103Z,11.78
2023-04-28T17:59:42.772Z,11.66
2023-04-28T18:02:11.797Z,11.56
2023-04-28T18:04:40.099Z,11.44
2023-04-28T18:07:08.565Z,11.34
2023-04-28T18:09:36.599Z,11.26
2023-04-28T18:12:05.368Z,11.17
2023-04-28T18:14:33.831Z,11.07
2023-04-28T18:17:01.987Z,10.98
2023-04-28T18:19:30.535Z,10.88
2023-04-28T18:21:59.027Z,10.77
2023-04-28T18:24:27.588Z,10.68
2023-04-28T18:26:55.663Z,10.57
2023-04-28T18:29:23.753Z,10.47
2023-04-28T18:31:52.110Z,10.39
2023-04-28T18:34:23.522Z,10.32
2023-04-28T18:36:51.948Z,10.23
2023-04-28T18:39:19.890Z,10.13
2023-04-28T18:41:48.098Z,10.04
2023-04-28T18:44:16.056Z,9.96
2023-04-28T18:46:44.229Z,9.89
2023-04-28T18:49:12.828Z,9.81
2023-04-28T18:51:41.198Z,9.73
2023-04-28T18:54:09.672Z,9.67
2023-04-28T18:56:37.950Z,9.62
2023-04-28T18:59:06.336Z,9.56
2023-04-28T19:01:35.057Z,9.46
2023-04-28T19:04:04.527Z,9.39
2023-04-28T19:06:32.904Z,9.31
2023-04-28T19:09:01.694Z,9.26
2023-04-28T19:11:30.680Z,9.20
2023-04-28T19:13:59.585Z,9.13
2023-04-28T19:16:27.776Z,9.06
2023-04-28T19:18:56.232Z,8.99
2023-04-28T19:21:25.021Z,8.90
2023-04-28T19:23:53.586Z,8.84
2023-04-28T19:26:21.858Z,8.79
2023-04-28T19:28:50.056Z,8.73
2023-04-28T19:31:18.173Z,8.69
2023-04-28T19:33:46.302Z,8.63
2023-04-28T19:36:14.375Z,8.57
2023-04-28T19:38:42.440Z,8.48
2023-04-28T19:41:10.517Z,8.43
2023-04-28T19:43:38.583Z,8.36
2023-04-28T19:46:06.584Z,8.29
2023-04-28T19:48:34.830Z,8.22
2023-04-28T19:51:02.806Z,8.17
2023-04-28T19:53:30.987Z,8.12
2023-04-28T19:56:01.861Z,8.03
2023-04-28T19:58:30.504Z,7.94
2023-04-28T20:00:58.680Z,7.88
2023-04-28T20:03:27.472Z,7.81
2023-04-28T20:05:55.612Z,7.73
2023-04-28T20:08:25.760Z,7.60
2023-04-28T20:10:54.948Z,7.54
2023-04-28T20:13:23.009Z,7.50
2023-04-28T20:15:51.878Z,7.47
2023-04-28T20:18:20.104Z,7.43
2023-04-28T20:20:48.172Z,7.39
2023-04-28T20:23:16.150Z,7.34
2023-04-28T20:25:44.209Z,7.31
2023-04-28T20:28:12.653Z,7.25
2023-04-28T20:30:42.093Z,7.21
2023-04-28T20:33:10.583Z,7.21
2023-04-28T20:35:38.755Z,7.20
2023-04-28T20:38:07.325Z,7.17
2023-04-28T20:40:37.071Z,7.15
2023-04-28T20:43:05.517Z,7.08
2023-04-28T20:45:34.825Z,7.00
2023-04-28T20:48:03.353Z,6.93
2023-04-28T20:50:33.521Z,6.89
2023-04-28T20:53:01.962Z,6.83
2023-04-28T20:55:30.072Z,6.75
2023-04-28T20:57:58.060Z,6.68
2023-04-28T21:00:26.119Z,6.62
2023-04-28T21:02:54.400Z,6.56
2023-04-28T21:05:24.067Z,6.51
2023-04-28T21:07:52.180Z,6.50
2023-04-28T21:10:20.229Z,6.45
2023-04-28T21:12:48.930Z,6.42
2023-04-28T21:15:17.113Z,6.38
2023-04-28T21:17:45.216Z,6.35
2023-04-28T21:20:14.957Z,6.33
2023-04-28T21:22:43.172Z,6.29
2023-04-28T21:25:11.216Z,6.28
2023-04-28T21:27:39.314Z,6.23
2023-04-28T21:30:08.298Z,6.20
2023-04-28T21:32:36.709Z,6.16
2023-04-28T21:35:05.274Z,6.12
2023-04-28T21:37:33.340Z,6.10
2023-04-28T21:40:02.231Z,6.08
2023-04-28T21:42:32.240Z,6.05
2023-04-28T21:45:00.252Z,6.04
2023-04-28T21:47:28.619Z,5.98
2023-04-28T21:49:56.698Z,5.92
2023-04-28T21:52:24.791Z,5.87
2023-04-28T21:54:52.921Z,5.84
2023-04-28T21:57:20.920Z,5.80
2023-04-28T21:59:49.008Z,5.76
2023-04-28T22:02:17.603Z,5.73
2023-04-28T22:04:45.918Z,5.69
2023-04-28T22:07:13.849Z,5.63
2023-04-28T22:09:41.970Z,5.59
2023-04-28T22:12:10.231Z,5.55
2023-04-28T22:14:41.383Z,5.52
2023-04-28T22:17:09.978Z,5.47
2023-04-28T22:19:38.209Z,5.41
2023-04-28T22:22:07.967Z,5.37
2023-04-28T22:24:36.143Z,5.31
2023-04-28T22:27:04.394Z,5.29
2023-04-28T22:29:32.484Z,5.27
2023-04-28T22:32:00.754Z,5.23
2023-04-28T22:34:29.139Z,5.22
2023-04-28T22:36:57.200Z,5.19
2023-04-28T22:39:27.093Z,5.15
2023-04-28T22:41:55.912Z,5.09
2023-04-28T22:44:24.074Z,5.07
2023-04-28T22:46:53.186Z,5.05
2023-04-28T22:49:25.241Z,5.02
2023-04-28T22:51:53.171Z,4.99
2023-04-28T22:54:21.589Z,4.94
2023-04-28T22:56:51.922Z,4.91
2023-04-28T22:59:22.275Z,4.88
2023-04-28T23:01:50.768Z,4.83
2023-04-28T23:04:20.684Z,4.79
2023-04-28T23:06:49.219Z,4.75
2023-04-28T23:09:17.296Z,4.71
2023-04-28T23:11:46.283Z,4.66
2023-04-28T23:14:14.361Z,4.64
2023-04-28T23:16:42.530Z,4.59
2023-04-28T23:19:10.597Z,4.56
2023-04-28T23:21:38.775Z,4.54
2023-04-28T23:24:07.662Z,4.49
2023-04-28T23:26:35.638Z,4.45
2023-04-28T23:29:03.811Z,4.44
2023-04-28T23:31:32.111Z,4.41
2023-04-28T23:34:00.174Z,4.39
2023-04-28T23:36:28.225Z,4.36
2023-04-28T23:38:56.714Z,4.32
2023-04-28T23:41:26.265Z,4.32
2023-04-28T23:43:54.395Z,4.30
2023-04-28T23:46:22.868Z,4.28
2023-04-28T23:48:51.053Z,4.23
2023-04-28T23:51:19.134Z,4.20
2023-04-28T23:53:48.025Z,4.14
2023-04-28T23:56:16.692Z,4.07
2023-04-28T23:58:44.762Z,4.02
